Time;durP1;ratioP1;P1;durP2;ratioP2;P2;SDS_P1;SDS_P2;PMS_P1;PMS_P2;Temp;Humidity;BMP_temperature;BMP_pressure;BME280_temperature;BME280_humidity;BME280_pressure;Samples;Min_cycle;Max_cycle;Signal;HPM_P1;HPM_P2
2022/10/18 00:00:54;;;;;;;17.43;14.27;;;14.80;99.90;;;;;;5033972;28;20286;-55
2022/10/18 00:03:22;;;;;;;18.83;15.50;;;14.80;99.90;;;;;;5034006;28;20707;-55
2022/10/18 00:05:51;;;;;;;23.03;16.57;;;14.90;99.90;;;;;;5034075;28;20680;-55
2022/10/18 00:08:19;;;;;;;20.23;15.87;;;14.80;99.90;;;;;;5034033;28;20224;-56
2022/10/18 00:10:48;;;;;;;19.70;16.00;;;14.80;99.90;;;;;;5033782;28;20692;-55
2022/10/18 00:13:16;;;;;;;18.53;15.90;;;14.80;99.90;;;;;;5025229;28;20282;-55
2022/10/18 00:15:50;;;;;;;23.37;17.27;;;14.70;99.90;;;;;;5033720;28;20728;-54
2022/10/18 00:18:19;;;;;;;24.27;18.37;;;14.80;99.90;;;;;;5033858;28;20235;-55
2022/10/18 00:20:56;;;;;;;23.77;18.30;;;14.80;99.90;;;;;;5034036;28;20668;-55
2022/10/18 00:23:25;;;;;;;22.53;17.40;;;14.70;99.90;;;;;;5039875;28;20229;-55
2022/10/18 00:25:59;;;;;;;23.87;18.47;;;14.80;99.90;;;;;;5033883;28;20285;-55
2022/10/18 00:28:27;;;;;;;24.43;17.43;;;14.80;99.90;;;;;;5033433;28;20224;-55
2022/10/18 00:30:57;;;;;;;22.70;18.20;;;14.70;99.90;;;;;;5033273;28;20718;-55
2022/10/18 00:33:25;;;;;;;22.83;18.23;;;14.70;99.90;;;;;;5033684;28;20270;-55
2022/10/18 00:35:53;;;;;;;22.90;17.23;;;14.60;99.90;;;;;;5033755;28;20290;-55
2022/10/18 00:38:21;;;;;;;24.43;17.57;;;14.70;99.90;;;;;;5033455;28;20231;-55
2022/10/18 00:40:49;;;;;;;22.47;17.27;;;14.70;99.90;;;;;;5033318;28;20224;-55
2022/10/18 00:43:18;;;;;;;24.60;18.70;;;14.60;99.90;;;;;;5024627;28;20299;-55
2022/10/18 00:45:47;;;;;;;25.33;18.83;;;14.60;99.90;;;;;;5032629;28;20235;-55
2022/10/18 00:48:19;;;;;;;22.97;17.93;;;14.60;99.90;;;;;;5033313;28;20227;-55
2022/10/18 00:50:49;;;;;;;21.07;17.33;;;14.60;99.90;;;;;;5033465;28;20297;-55
2022/10/18 00:53:19;;;;;;;22.17;17.70;;;14.60;99.90;;;;;;5039801;28;20237;-55
2022/10/18 00:55:48;;;;;;;25.00;17.30;;;14.50;99.90;;;;;;5033223;28;20245;-56
2022/10/18 00:58:18;;;;;;;24.50;18.93;;;14.50;99.90;;;;;;5033403;28;20232;-54
2022/10/18 01:00:47;;;;;;;22.87;18.23;;;14.50;99.90;;;;;;5032638;28;20240;-55
2022/10/18 01:03:15;;;;;;;24.10;16.60;;;14.50;99.90;;;;;;5033328;28;20711;-55
2022/10/18 01:05:47;;;;;;;24.13;19.13;;;14.50;99.90;;;;;;5033132;28;20235;-55
2022/10/18 01:08:37;;;;;;;25.57;18.83;;;14.40;99.90;;;;;;5033225;28;20247;-55
2022/10/18 01:11:20;;;;;;;24.07;18.87;;;14.40;99.90;;;;;;5029539;28;20229;-55
2022/10/18 01:14:01;;;;;;;22.97;17.57;;;14.40;99.90;;;;;;5022921;28;20227;-55
2022/10/18 01:16:35;;;;;;;21.87;16.90;;;14.40;99.90;;;;;;5032811;28;20630;-56
2022/10/18 01:19:12;;;;;;;20.90;16.57;;;14.40;99.90;;;;;;5033020;28;20286;-56
2022/10/18 01:21:47;;;;;;;22.40;16.63;;;14.40;99.90;;;;;;5040154;28;20236;-55
2022/10/18 01:24:43;;;;;;;21.67;16.70;;;14.50;99.90;;;;;;5025595;28;20236;-55
2022/10/18 01:27:41;;;;;;;22.10;18.20;;;14.40;99.90;;;;;;5032666;28;20231;-56
2022/10/18 01:30:47;;;;;;;20.73;15.40;;;14.40;99.90;;;;;;5032523;28;20263;-56
2022/10/18 01:33:26;;;;;;;23.00;17.50;;;14.50;99.90;;;;;;5032842;28;20703;-55
2022/10/18 01:35:59;;;;;;;22.10;16.07;;;14.50;99.90;;;;;;5030800;28;20679;-55
2022/10/18 01:38:31;;;;;;;24.93;17.67;;;14.60;99.90;;;;;;5018609;28;20570;-56
2022/10/18 01:41:00;;;;;;;23.27;18.17;;;14.40;99.90;;;;;;5012764;28;20229;-55
2022/10/18 01:43:29;;;;;;;20.77;15.77;;;14.30;99.90;;;;;;5020245;28;20618;-56
2022/10/18 01:46:00;;;;;;;19.93;16.17;;;14.30;99.90;;;;;;5032372;28;20234;-56
2022/10/18 01:48:30;;;;;;;25.90;17.43;;;14.20;99.90;;;;;;5032822;28;20244;-55
2022/10/18 01:50:59;;;;;;;24.90;18.53;;;14.20;99.90;;;;;;5032407;28;20753;-55
2022/10/18 01:53:30;;;;;;;24.97;18.00;;;14.20;99.90;;;;;;5032413;28;20232;-55
2022/10/18 01:56:26;;;;;;;26.10;18.17;;;14.20;99.90;;;;;;5032847;28;20719;-56
2022/10/18 01:59:07;;;;;;;26.53;18.07;;;14.10;99.90;;;;;;5030350;28;20232;-55
2022/10/18 02:01:43;;;;;;;25.30;18.87;;;14.00;99.90;;;;;;5035796;28;20781;-55
2022/10/18 02:04:22;;;;;;;23.90;17.97;;;14.00;99.90;;;;;;5028575;28;20227;-55
2022/10/18 02:06:57;;;;;;;23.93;17.43;;;14.00;99.90;;;;;;5019126;28;20228;-56
2022/10/18 02:09:34;;;;;;;24.00;16.83;;;14.00;99.90;;;;;;5016664;28;20232;-55
2022/10/18 02:12:03;;;;;;;22.13;16.20;;;14.10;99.90;;;;;;5016636;28;20263;-56
2022/10/18 02:14:32;;;;;;;25.27;17.77;;;14.20;99.90;;;;;;5032078;28;20231;-55
2022/10/18 02:17:05;;;;;;;25.73;18.80;;;14.30;99.90;;;;;;5036424;28;20299;-55
2022/10/18 02:19:38;;;;;;;25.50;17.83;;;14.20;99.90;;;;;;5035998;28;20235;-55
2022/10/18 02:22:08;;;;;;;23.83;16.87;;;14.20;99.90;;;;;;5035855;28;20225;-56
2022/10/18 02:24:39;;;;;;;23.23;16.77;;;14.20;99.90;;;;;;5035962;28;20629;-55
2022/10/18 02:27:08;;;;;;;21.30;16.40;;;14.30;99.90;;;;;;5036241;28;20687;-55
2022/10/18 02:29:36;;;;;;;23.33;15.87;;;14.30;99.90;;;;;;5035983;28;20233;-55
2022/10/18 02:32:09;;;;;;;25.43;17.67;;;14.20;99.90;;;;;;5035447;28;20250;-55
2022/10/18 02:34:42;;;;;;;23.50;17.63;;;14.10;99.90;;;;;;5035617;28;20223;-56
2022/10/18 02:37:12;;;;;;;20.20;15.57;;;14.00;99.90;;;;;;5035919;28;20580;-56
2022/10/18 02:39:45;;;;;;;20.50;16.27;;;14.00;99.90;;;;;;5035839;28;20232;-55
2022/10/18 02:42:14;;;;;;;22.13;17.40;;;14.00;99.90;;;;;;5035397;28;20212;-55
2022/10/18 02:44:42;;;;;;;24.80;18.20;;;13.80;99.90;;;;;;5035485;28;20294;-56
2022/10/18 02:47:12;;;;;;;25.10;18.27;;;13.80;99.90;;;;;;5035826;28;20568;-55
2022/10/18 02:49:41;;;;;;;25.73;18.47;;;13.70;99.90;;;;;;5035508;28;20233;-55
2022/10/18 02:52:09;;;;;;;27.57;19.67;;;13.80;99.90;;;;;;5035618;28;20228;-56
2022/10/18 02:54:37;;;;;;;24.80;16.50;;;13.80;99.90;;;;;;5035389;28;20227;-56
2022/10/18 02:57:05;;;;;;;26.13;18.87;;;13.80;99.90;;;;;;5035256;28;20251;-56
2022/10/18 02:59:33;;;;;;;22.43;19.00;;;13.80;99.90;;;;;;5035435;28;20236;-56
2022/10/18 03:02:01;;;;;;;27.20;19.37;;;13.80;99.90;;;;;;5035131;28;20285;-55
2022/10/18 03:04:29;;;;;;;25.50;18.47;;;13.80;99.90;;;;;;5035001;28;20228;-53
2022/10/18 03:06:59;;;;;;;29.73;19.27;;;13.90;99.90;;;;;;5015443;28;20225;-55
2022/10/18 03:09:27;;;;;;;24.47;17.33;;;14.00;99.90;;;;;;5014814;28;20713;-55
2022/10/18 03:11:55;;;;;;;30.27;18.70;;;14.10;99.90;;;;;;5015216;28;20244;-56
2022/10/18 03:14:23;;;;;;;26.43;20.20;;;14.10;99.90;;;;;;5028996;28;20281;-54
2022/10/18 03:16:51;;;;;;;22.93;18.40;;;14.10;99.90;;;;;;5035242;28;21021;-55
2022/10/18 03:19:19;;;;;;;24.93;19.47;;;14.10;99.90;;;;;;5035175;28;20703;-55
2022/10/18 03:21:47;;;;;;;25.00;18.73;;;14.00;99.90;;;;;;5042920;28;20227;-56
2022/10/18 03:24:17;;;;;;;25.57;17.63;;;13.90;99.90;;;;;;5035028;28;20231;-56
2022/10/18 03:26:45;;;;;;;26.37;18.97;;;14.10;99.90;;;;;;5034636;28;20229;-56
2022/10/18 03:29:13;;;;;;;28.23;19.23;;;14.20;99.90;;;;;;5035070;28;20234;-55
2022/10/18 03:31:41;;;;;;;26.13;18.63;;;14.10;99.90;;;;;;5034176;28;20236;-55
2022/10/18 03:34:09;;;;;;;28.20;19.43;;;14.10;99.90;;;;;;5034997;28;20242;-56
2022/10/18 03:36:39;;;;;;;28.83;19.83;;;14.10;99.90;;;;;;5017189;28;20318;-56
2022/10/18 03:39:07;;;;;;;29.53;21.10;;;14.20;99.90;;;;;;5014911;28;20228;-56
2022/10/18 03:41:37;;;;;;;30.53;22.57;;;14.10;99.90;;;;;;5014870;28;20237;-56
2022/10/18 03:44:05;;;;;;;28.67;21.03;;;14.10;99.90;;;;;;5027258;28;20569;-56
2022/10/18 03:46:33;;;;;;;31.57;22.37;;;14.20;99.90;;;;;;5034163;28;20239;-55
2022/10/18 03:49:01;;;;;;;33.73;19.43;;;14.20;99.90;;;;;;5034563;28;20630;-56
2022/10/18 03:51:29;;;;;;;33.33;20.17;;;14.20;99.90;;;;;;5033842;28;20227;-56
2022/10/18 03:53:57;;;;;;;34.87;22.73;;;14.20;99.90;;;;;;5034474;28;20291;-56
2022/10/18 03:56:25;;;;;;;31.53;20.17;;;14.20;99.90;;;;;;5034012;28;20252;-54
2022/10/18 03:58:55;;;;;;;32.50;21.33;;;14.10;99.90;;;;;;5034264;28;20228;-55
2022/10/18 04:01:24;;;;;;;31.73;21.33;;;14.10;99.90;;;;;;5034090;28;20737;-56
2022/10/18 04:03:52;;;;;;;33.23;21.47;;;14.10;99.90;;;;;;5034466;28;20270;-56
2022/10/18 04:06:20;;;;;;;35.70;21.83;;;14.10;99.90;;;;;;5033925;28;20231;-55
2022/10/18 04:08:48;;;;;;;36.73;22.20;;;14.10;99.90;;;;;;5034132;28;20283;-56
2022/10/18 04:11:16;;;;;;;32.80;21.37;;;14.10;99.90;;;;;;5034107;28;20225;-56
2022/10/18 04:13:44;;;;;;;29.87;20.83;;;14.20;99.90;;;;;;5033898;28;20580;-54
2022/10/18 04:16:13;;;;;;;33.40;22.37;;;14.10;99.90;;;;;;5034045;28;20229;-55
2022/10/18 04:18:41;;;;;;;33.30;21.97;;;14.10;99.90;;;;;;5033897;28;20239;-55
2022/10/18 04:21:09;;;;;;;34.53;21.67;;;14.10;99.90;;;;;;5024594;28;20216;-55
2022/10/18 04:23:37;;;;;;;37.87;23.17;;;14.10;99.90;;;;;;5033704;28;20228;-56
2022/10/18 04:26:06;;;;;;;33.67;22.30;;;14.00;99.90;;;;;;5033984;28;20285;-56
2022/10/18 04:28:38;;;;;;;37.87;23.27;;;14.00;99.90;;;;;;5033487;28;20278;-56
2022/10/18 04:31:07;;;;;;;32.70;21.90;;;14.10;99.90;;;;;;5033339;28;20785;-55
2022/10/18 04:33:36;;;;;;;37.37;23.53;;;14.10;99.90;;;;;;5033309;28;20235;-55
2022/10/18 04:36:04;;;;;;;38.73;22.60;;;14.10;99.90;;;;;;5033565;28;20240;-55
2022/10/18 04:38:32;;;;;;;38.73;24.13;;;14.10;99.90;;;;;;5033621;28;20232;-56
2022/10/18 04:41:00;;;;;;;38.60;23.50;;;14.10;99.90;;;;;;5032985;28;20235;-56
2022/10/18 04:43:28;;;;;;;33.73;22.50;;;14.10;99.90;;;;;;5032586;28;20223;-54
2022/10/18 04:45:56;;;;;;;34.50;22.83;;;14.10;99.90;;;;;;5032984;28;20688;-55
2022/10/18 04:48:24;;;;;;;31.33;21.07;;;14.10;99.90;;;;;;5033445;28;20599;-55
2022/10/18 04:50:54;;;;;;;35.33;22.63;;;14.10;99.90;;;;;;5033047;28;20239;-55
2022/10/18 04:53:22;;;;;;;31.97;21.90;;;14.10;99.90;;;;;;5033347;28;20587;-55
2022/10/18 04:55:50;;;;;;;32.20;21.37;;;14.10;99.90;;;;;;5032797;28;20306;-55
2022/10/18 04:58:19;;;;;;;35.97;23.37;;;14.00;99.90;;;;;;5033101;28;20232;-55
2022/10/18 05:00:47;;;;;;;32.43;22.20;;;14.10;99.90;;;;;;5032748;28;20702;-55
2022/10/18 05:03:16;;;;;;;34.93;22.83;;;14.10;99.90;;;;;;5033307;28;20234;-55
2022/10/18 05:05:44;;;;;;;32.17;22.03;;;14.00;99.90;;;;;;5033167;28;20235;-55
2022/10/18 05:08:33;;;;;;;34.10;21.80;;;14.00;99.90;;;;;;5032863;28;20274;-56
2022/10/18 05:11:02;;;;;;;37.83;22.23;;;14.10;99.90;;;;;;5032949;28;20236;-55
2022/10/18 05:13:30;;;;;;;37.10;20.53;;;14.10;99.90;;;;;;5032872;28;20233;-55
2022/10/18 05:15:59;;;;;;;31.33;21.57;;;14.10;99.90;;;;;;5031487;28;20221;-55
2022/10/18 05:18:27;;;;;;;32.73;22.53;;;14.20;99.90;;;;;;5031583;28;20676;-56
2022/10/18 05:20:55;;;;;;;30.67;20.73;;;14.20;99.90;;;;;;5032869;28;20742;-55
2022/10/18 05:23:24;;;;;;;33.33;22.23;;;14.10;99.90;;;;;;5032620;28;20704;-55
2022/10/18 05:25:54;;;;;;;29.97;18.97;;;14.00;99.90;;;;;;5032669;28;20235;-54
2022/10/18 05:28:23;;;;;;;30.23;20.03;;;14.10;99.90;;;;;;5033329;28;20227;-55
2022/10/18 05:31:10;;;;;;;32.63;20.47;;;14.10;99.90;;;;;;5031835;28;20239;-55
2022/10/18 05:33:38;;;;;;;32.47;21.90;;;14.20;99.90;;;;;;5027856;28;20591;-55
2022/10/18 05:36:07;;;;;;;32.00;21.00;;;14.10;99.90;;;;;;5026061;28;20727;-54
2022/10/18 05:38:37;;;;;;;33.30;21.77;;;14.10;99.90;;;;;;5023086;28;20237;-55
2022/10/18 05:41:07;;;;;;;33.83;21.43;;;14.00;99.90;;;;;;5028427;28;20261;-54
2022/10/18 05:43:35;;;;;;;27.77;19.77;;;14.00;99.90;;;;;;5025059;28;20217;-55
2022/10/18 05:46:04;;;;;;;29.93;19.43;;;14.00;99.90;;;;;;5033322;28;20234;-55
2022/10/18 05:48:35;;;;;;;29.13;19.87;;;14.00;99.90;;;;;;5032174;28;20314;-55
2022/10/18 05:51:03;;;;;;;29.60;19.80;;;14.00;99.90;;;;;;5031937;28;20231;-55
2022/10/18 05:53:32;;;;;;;28.87;18.80;;;13.90;99.90;;;;;;5031811;28;20232;-54
2022/10/18 05:56:07;;;;;;;29.00;20.57;;;14.00;99.90;;;;;;5030418;28;20238;-55
2022/10/18 05:58:35;;;;;;;33.07;20.13;;;14.10;99.90;;;;;;5031594;28;20575;-55
2022/10/18 06:01:05;;;;;;;30.27;19.33;;;14.00;99.90;;;;;;5032147;28;20243;-54
2022/10/18 06:03:33;;;;;;;32.20;20.57;;;14.00;99.90;;;;;;5031915;28;20240;-55
2022/10/18 06:06:03;;;;;;;33.07;20.33;;;14.00;99.90;;;;;;5031477;28;20235;-55
2022/10/18 06:08:31;;;;;;;28.30;19.77;;;14.00;99.90;;;;;;5031677;28;20223;-55
2022/10/18 06:10:59;;;;;;;30.23;20.00;;;14.00;99.90;;;;;;5032382;28;20278;-55
2022/10/18 06:13:28;;;;;;;29.50;20.20;;;14.00;99.90;;;;;;5029171;28;20233;-55
2022/10/18 06:16:00;;;;;;;31.07;20.60;;;14.00;99.90;;;;;;5026029;28;20676;-55
2022/10/18 06:18:28;;;;;;;33.07;19.90;;;13.90;99.90;;;;;;5016460;28;20760;-55
2022/10/18 06:20:58;;;;;;;30.70;20.27;;;14.00;99.90;;;;;;5024151;28;20228;-55
2022/10/18 06:23:26;;;;;;;31.87;20.17;;;14.00;99.90;;;;;;5031877;28;20717;-55
2022/10/18 06:25:57;;;;;;;31.00;19.43;;;14.00;99.90;;;;;;5031997;28;20225;-55
2022/10/18 06:28:26;;;;;;;30.00;19.67;;;14.00;99.90;;;;;;5031957;28;20637;-55
2022/10/18 06:30:55;;;;;;;30.03;19.23;;;14.00;99.90;;;;;;5030020;28;20590;-56
2022/10/18 06:33:23;;;;;;;33.73;21.03;;;13.90;99.90;;;;;;5025929;28;20224;-55
2022/10/18 06:35:56;;;;;;;30.33;20.23;;;14.00;99.90;;;;;;5024135;28;20232;-55
2022/10/18 06:38:24;;;;;;;28.53;20.30;;;13.90;99.90;;;;;;5031725;28;20630;-55
2022/10/18 06:40:52;;;;;;;31.63;20.20;;;14.00;99.90;;;;;;5025319;28;20247;-55
2022/10/18 06:43:20;;;;;;;32.87;21.87;;;14.00;99.90;;;;;;5021191;28;20224;-55
2022/10/18 06:45:49;;;;;;;32.53;19.80;;;13.90;99.90;;;;;;5030867;28;20228;-55
2022/10/18 06:48:19;;;;;;;31.93;20.13;;;13.90;99.90;;;;;;5030207;28;20242;-55
2022/10/18 06:50:53;;;;;;;28.60;18.97;;;13.90;99.90;;;;;;5035219;28;20231;-55
2022/10/18 06:53:21;;;;;;;29.20;19.63;;;14.00;99.90;;;;;;5034873;28;20229;-55
2022/10/18 06:55:49;;;;;;;34.57;21.23;;;14.00;99.90;;;;;;5035378;28;20600;-55
2022/10/18 06:58:17;;;;;;;28.23;19.03;;;14.10;99.90;;;;;;5035396;28;20722;-54
2022/10/18 07:00:45;;;;;;;28.43;18.57;;;14.00;99.90;;;;;;5033931;28;20250;-55
2022/10/18 07:03:13;;;;;;;34.27;20.53;;;14.10;99.90;;;;;;5034598;28;20220;-55
2022/10/18 07:05:43;;;;;;;31.70;18.83;;;14.00;99.90;;;;;;5034679;28;20228;-55
2022/10/18 07:08:11;;;;;;;30.47;18.57;;;14.00;99.90;;;;;;5035093;28;20224;-55
2022/10/18 07:10:39;;;;;;;35.87;19.43;;;14.00;99.90;;;;;;5034406;28;20251;-56
2022/10/18 07:13:07;;;;;;;29.47;18.47;;;13.90;99.90;;;;;;5034787;28;20696;-54
2022/10/18 07:16:03;;;;;;;28.60;17.40;;;14.00;99.90;;;;;;5032939;28;20215;-55
2022/10/18 07:18:33;;;;;;;26.57;17.57;;;13.90;99.90;;;;;;5034468;28;20230;-55
2022/10/18 07:21:03;;;;;;;26.53;17.13;;;14.00;99.90;;;;;;5034298;28;20232;-55
2022/10/18 07:23:32;;;;;;;25.40;16.80;;;14.00;99.90;;;;;;5032162;28;20235;-55
2022/10/18 07:26:01;;;;;;;31.47;18.10;;;14.00;99.90;;;;;;5030827;28;20240;-55
2022/10/18 07:28:30;;;;;;;25.73;16.53;;;14.00;99.90;;;;;;5032154;28;20627;-55
2022/10/18 07:31:03;;;;;;;24.27;16.77;;;14.00;99.90;;;;;;5031749;28;20322;-55
2022/10/18 07:33:33;;;;;;;26.57;18.07;;;14.00;99.90;;;;;;5031763;28;20278;-55
2022/10/18 07:36:03;;;;;;;27.63;17.70;;;13.90;99.90;;;;;;5034217;28;20223;-55
2022/10/18 07:38:31;;;;;;;24.93;16.50;;;14.00;99.90;;;;;;5033954;28;20231;-54
2022/10/18 07:41:01;;;;;;;24.57;17.40;;;14.00;99.90;;;;;;5024706;28;20231;-55
2022/10/18 07:43:29;;;;;;;24.03;15.80;;;14.00;99.90;;;;;;5028614;28;20278;-55
2022/10/18 07:45:59;;;;;;;22.43;16.27;;;14.00;99.90;;;;;;5034465;28;20220;-55
2022/10/18 07:48:27;;;;;;;26.37;16.30;;;14.00;99.90;;;;;;5034626;28;20232;-55
2022/10/18 07:50:58;;;;;;;25.77;16.67;;;14.00;99.90;;;;;;5034000;28;20220;-55
2022/10/18 07:53:28;;;;;;;23.37;15.83;;;14.10;99.90;;;;;;5033844;28;20261;-55
2022/10/18 07:56:00;;;;;;;26.97;15.87;;;14.10;99.90;;;;;;5034090;28;20706;-55
2022/10/18 07:58:34;;;;;;;24.90;15.73;;;14.20;99.90;;;;;;5025638;28;20225;-55
2022/10/18 08:01:03;;;;;;;28.80;17.30;;;14.30;99.90;;;;;;5032595;28;20244;-54
2022/10/18 08:03:31;;;;;;;27.10;16.90;;;14.30;99.90;;;;;;5034373;28;20227;-55
2022/10/18 08:05:59;;;;;;;27.10;17.17;;;14.30;99.90;;;;;;5034161;28;20722;-56
2022/10/18 08:08:29;;;;;;;26.70;17.73;;;14.30;99.90;;;;;;5033630;28;20219;-54
2022/10/18 08:11:02;;;;;;;22.37;15.97;;;14.30;99.90;;;;;;5034129;28;20236;-55
2022/10/18 08:13:31;;;;;;;26.53;17.00;;;14.30;99.90;;;;;;5033950;28;20243;-55
2022/10/18 08:16:00;;;;;;;24.83;17.83;;;14.30;99.90;;;;;;5033010;28;20224;-55
2022/10/18 08:18:28;;;;;;;24.80;16.23;;;14.30;99.90;;;;;;5027954;28;20618;-55
2022/10/18 08:20:56;;;;;;;25.10;16.37;;;14.30;99.90;;;;;;5026144;28;20230;-55
2022/10/18 08:23:24;;;;;;;29.90;18.27;;;14.40;99.90;;;;;;5025397;28;20217;-55
2022/10/18 08:25:54;;;;;;;27.33;17.37;;;14.30;99.90;;;;;;5024826;28;20229;-56
2022/10/18 08:28:22;;;;;;;28.33;18.27;;;14.20;99.90;;;;;;5024430;28;20234;-55
2022/10/18 08:30:50;;;;;;;31.27;18.47;;;14.30;99.90;;;;;;5024781;28;20235;-54
2022/10/18 08:33:18;;;;;;;27.97;18.47;;;14.30;99.90;;;;;;5030529;28;20637;-54
2022/10/18 08:35:55;;;;;;;26.57;18.27;;;14.20;99.90;;;;;;5024375;28;20242;-55
2022/10/18 08:38:23;;;;;;;25.50;16.57;;;14.20;99.90;;;;;;5027472;28;20281;-55
2022/10/18 08:40:53;;;;;;;30.63;18.67;;;14.20;99.90;;;;;;5023066;28;20274;-55
2022/10/18 08:43:30;;;;;;;28.67;18.47;;;14.20;99.90;;;;;;5022512;28;20229;-55
2022/10/18 08:45:58;;;;;;;27.20;17.97;;;14.30;99.90;;;;;;5026853;28;20676;-55
2022/10/18 08:48:34;;;;;;;29.20;18.50;;;14.40;99.90;;;;;;5021717;28;20223;-54
2022/10/18 08:51:04;;;;;;;27.57;17.47;;;14.60;99.90;;;;;;5025526;28;20223;-55
2022/10/18 08:53:40;;;;;;;25.67;17.67;;;14.80;99.90;;;;;;5025871;28;20220;-55
2022/10/18 08:56:13;;;;;;;31.03;19.07;;;15.00;99.90;;;;;;5023410;28;20247;-55
2022/10/18 08:58:43;;;;;;;29.60;18.97;;;15.30;99.90;;;;;;5023667;28;20228;-55
2022/10/18 09:01:27;;;;;;;27.60;17.83;;;15.60;99.90;;;;;;5026716;28;20235;-55
2022/10/18 09:04:14;;;;;;;24.03;17.43;;;15.80;99.90;;;;;;5025604;28;20702;-55
2022/10/18 09:06:54;;;;;;;25.23;17.03;;;16.10;99.90;;;;;;5023286;28;20676;-55
2022/10/18 09:09:34;;;;;;;25.53;16.93;;;16.00;99.90;;;;;;5029109;28;20250;-54
2022/10/18 09:12:20;;;;;;;24.60;16.33;;;16.10;99.90;;;;;;5016637;28;20689;-55
2022/10/18 09:15:12;;;;;;;27.47;15.67;;;16.20;99.90;;;;;;5032288;28;20251;-55
2022/10/18 09:17:56;;;;;;;23.40;15.73;;;16.40;99.90;;;;;;5032714;28;20274;-55
2022/10/18 09:20:27;;;;;;;21.63;15.47;;;16.70;99.90;;;;;;5032442;28;20762;-53
2022/10/18 09:22:58;;;;;;;19.23;13.83;;;17.00;99.90;;;;;;5032674;28;20233;-55
2022/10/18 09:25:35;;;;;;;21.23;14.47;;;17.40;99.90;;;;;;5031430;28;20223;-55
2022/10/18 09:28:16;;;;;;;21.37;13.83;;;17.70;99.90;;;;;;5022785;28;20599;-55
2022/10/18 09:30:52;;;;;;;19.87;13.73;;;17.50;99.90;;;;;;5024983;28;20241;-55
2022/10/18 09:33:39;;;;;;;21.03;13.53;;;17.20;99.90;;;;;;5023539;28;20235;-55
2022/10/18 09:36:10;;;;;;;20.37;12.93;;;17.10;99.90;;;;;;5011728;28;20677;-54
2022/10/18 09:38:44;;;;;;;21.00;13.20;;;17.20;99.90;;;;;;5020121;28;20244;-55
2022/10/18 09:41:18;;;;;;;20.90;13.23;;;17.30;99.90;;;;;;5019658;28;20319;-54
2022/10/18 09:43:54;;;;;;;19.30;12.77;;;17.20;99.90;;;;;;5016766;28;20266;-55
2022/10/18 09:46:26;;;;;;;20.97;13.27;;;17.20;99.90;;;;;;5021500;28;20599;-55
2022/10/18 09:49:00;;;;;;;18.83;11.77;;;17.20;99.90;;;;;;5022710;28;20228;-55
2022/10/18 09:51:33;;;;;;;19.60;13.07;;;17.00;99.90;;;;;;5023801;28;20244;-53
2022/10/18 09:54:19;;;;;;;18.53;11.20;;;16.90;99.90;;;;;;5016022;28;20707;-55
2022/10/18 09:56:49;;;;;;;19.47;12.67;;;16.80;99.90;;;;;;5019749;28;20243;-55
2022/10/18 09:59:33;;;;;;;18.90;11.80;;;16.60;99.90;;;;;;5016825;28;20705;-55
2022/10/18 10:02:02;;;;;;;18.70;12.13;;;16.50;99.90;;;;;;5019103;28;20732;-53
2022/10/18 10:04:30;;;;;;;19.77;11.40;;;16.60;99.90;;;;;;5022563;28;20239;-55
2022/10/18 10:07:01;;;;;;;17.77;11.70;;;16.60;99.90;;;;;;5023856;28;20279;-55
2022/10/18 10:09:31;;;;;;;17.83;11.27;;;16.70;99.90;;;;;;5023256;28;20225;-55
2022/10/18 10:11:59;;;;;;;17.97;11.77;;;16.60;99.90;;;;;;5022043;28;20288;-55
2022/10/18 10:14:29;;;;;;;18.53;10.70;;;16.60;99.90;;;;;;5022931;28;20225;-55
2022/10/18 10:17:01;;;;;;;19.17;10.93;;;16.60;99.90;;;;;;5021469;28;20237;-55
2022/10/18 10:19:32;;;;;;;17.07;9.57;;;16.80;99.90;;;;;;5024722;28;20229;-54
2022/10/18 10:22:05;;;;;;;18.63;9.93;;;17.10;99.90;;;;;;5027094;28;20225;-55
2022/10/18 10:24:40;;;;;;;15.80;9.23;;;17.50;99.90;;;;;;5027676;28;20316;-55
2022/10/18 10:27:17;;;;;;;15.20;8.67;;;17.70;99.90;;;;;;5024938;28;20347;-55
2022/10/18 10:30:20;;;;;;;16.37;8.13;;;17.90;99.90;;;;;;5021122;28;20232;-55
2022/10/18 10:32:51;;;;;;;16.53;8.60;;;18.00;99.90;;;;;;5026136;28;20735;-55
2022/10/18 10:35:31;;;;;;;15.17;8.10;;;18.10;99.90;;;;;;5035276;28;20312;-55
2022/10/18 10:38:24;;;;;;;16.03;8.47;;;18.20;99.90;;;;;;5028772;28;20636;-55
2022/10/18 10:40:53;;;;;;;15.53;7.80;;;18.20;99.90;;;;;;5028473;28;20228;-55
2022/10/18 10:43:24;;;;;;;14.77;7.47;;;18.10;99.90;;;;;;5028331;28;20225;-55
2022/10/18 10:46:10;;;;;;;14.53;7.03;;;18.10;99.90;;;;;;5032827;28;20727;-55
2022/10/18 10:48:47;;;;;;;17.63;7.63;;;18.20;99.90;;;;;;5037369;28;20233;-55
2022/10/18 10:51:28;;;;;;;13.93;7.40;;;18.40;99.90;;;;;;5030819;28;20592;-55
2022/10/18 10:54:01;;;;;;;14.27;6.97;;;18.70;99.90;;;;;;5030096;28;20709;-55
2022/10/18 10:56:31;;;;;;;12.87;6.67;;;19.00;99.90;;;;;;5034752;28;20244;-55
2022/10/18 10:59:08;;;;;;;13.57;7.00;;;19.20;99.90;;;;;;5019776;28;20237;-55
2022/10/18 11:01:37;;;;;;;15.63;6.90;;;19.30;99.90;;;;;;5031147;28;20240;-55
2022/10/18 11:04:25;;;;;;;13.93;6.17;;;19.30;99.90;;;;;;5045548;28;20232;-55
2022/10/18 11:07:06;;;;;;;12.23;6.33;;;19.70;99.90;;;;;;5037149;28;20696;-56
2022/10/18 11:09:58;;;;;;;16.10;7.97;;;20.00;99.90;;;;;;5047814;28;20607;-56
2022/10/18 11:12:33;;;;;;;12.67;7.00;;;19.80;99.90;;;;;;5036158;28;20719;-55
2022/10/18 11:15:27;;;;;;;13.27;6.93;;;19.60;99.90;;;;;;5040121;28;20762;-55
2022/10/18 11:18:04;;;;;;;15.30;7.87;;;19.40;99.90;;;;;;5029703;28;20230;-55
2022/10/18 11:20:36;;;;;;;15.07;6.77;;;19.00;99.90;;;;;;5033012;28;20305;-55
2022/10/18 11:23:07;;;;;;;14.50;7.20;;;18.60;99.90;;;;;;5033111;28;20712;-54
2022/10/18 11:26:01;;;;;;;13.67;8.00;;;18.50;99.90;;;;;;5029191;28;20233;-56
2022/10/18 11:28:41;;;;;;;16.30;8.67;;;18.50;99.90;;;;;;5028817;28;20233;-55
2022/10/18 11:31:18;;;;;;;14.20;7.80;;;18.90;99.90;;;;;;5022133;28;20847;-55
2022/10/18 11:34:08;;;;;;;12.17;7.00;;;19.20;99.90;;;;;;5025531;28;20236;-55
2022/10/18 11:36:46;;;;;;;11.17;6.17;;;19.00;99.90;;;;;;5014312;28;20226;-56
2022/10/18 11:39:40;;;;;;;11.70;5.37;;;18.70;99.90;;;;;;5027015;28;20294;-55
2022/10/18 11:42:18;;;;;;;11.30;5.07;;;18.50;99.90;;;;;;5026219;28;20560;-56
2022/10/18 11:44:57;;;;;;;11.17;4.93;;;18.00;99.90;;;;;;5026080;28;20246;-54
2022/10/18 11:47:33;;;;;;;10.43;4.77;;;17.50;99.90;;;;;;5026566;28;20225;-56
2022/10/18 11:50:19;;;;;;;8.33;4.17;;;17.30;99.90;;;;;;5028081;28;20264;-56
2022/10/18 11:52:59;;;;;;;11.53;3.70;;;17.00;99.90;;;;;;5030600;28;20330;-55
2022/10/18 11:55:36;;;;;;;8.90;4.03;;;16.90;99.90;;;;;;5027834;28;20234;-55
2022/10/18 11:58:18;;;;;;;10.23;4.10;;;16.80;99.90;;;;;;5029061;28;20295;-55
2022/10/18 12:00:51;;;;;;;8.53;3.60;;;16.80;99.90;;;;;;5022773;28;20853;-55
2022/10/18 12:03:30;;;;;;;11.43;3.83;;;16.90;99.90;;;;;;5017432;28;20712;-52
2022/10/18 12:06:05;;;;;;;11.37;4.20;;;17.20;99.90;;;;;;5021452;28;20238;-54
2022/10/18 12:08:38;;;;;;;13.40;4.10;;;17.20;99.90;;;;;;5016742;28;20699;-55
2022/10/18 12:11:11;;;;;;;7.77;3.63;;;17.00;99.90;;;;;;5018177;28;20224;-55
2022/10/18 12:13:44;;;;;;;12.10;4.60;;;17.00;99.90;;;;;;5020458;28;20802;-54
2022/10/18 12:16:12;;;;;;;10.87;3.80;;;17.10;99.90;;;;;;5021121;28;20237;-54
2022/10/18 12:18:52;;;;;;;8.57;3.13;;;17.10;99.90;;;;;;5020479;28;20239;-54
2022/10/18 12:21:29;;;;;;;11.03;2.83;;;17.20;99.90;;;;;;5021680;28;20220;-54
2022/10/18 12:23:59;;;;;;;7.90;2.57;;;17.30;99.90;;;;;;5022973;28;20235;-56
2022/10/18 12:26:31;;;;;;;8.53;2.80;;;17.70;99.90;;;;;;5015100;28;20275;-56
2022/10/18 12:29:10;;;;;;;13.07;3.37;;;17.90;99.90;;;;;;5022207;28;20233;-55
2022/10/18 12:31:43;;;;;;;7.50;2.30;;;18.00;99.90;;;;;;5018147;28;20302;-55
2022/10/18 12:34:34;;;;;;;9.57;2.50;;;18.20;99.90;;;;;;5019312;28;20726;-55
2022/10/18 12:37:56;;;;;;;10.33;2.07;;;18.10;99.90;;;;;;5167207;27;20651;-55
2022/10/18 12:40:37;;;;;;;8.40;2.00;;;18.10;99.90;;;;;;5133012;27;20240;-57
2022/10/18 12:43:09;;;;;;;9.27;2.40;;;18.20;99.90;;;;;;5136213;27;20705;-57
2022/10/18 12:45:49;;;;;;;6.40;1.80;;;17.90;99.90;;;;;;5133379;27;20263;-54
2022/10/18 12:48:31;;;;;;;8.57;1.73;;;17.90;99.90;;;;;;5132416;27;20228;-53
2022/10/18 12:51:04;;;;;;;6.47;2.17;;;18.10;99.90;;;;;;5134655;27;20232;-53
2022/10/18 12:53:34;;;;;;;14.40;2.50;;;18.20;99.90;;;;;;5136204;27;20226;-54
2022/10/18 12:56:40;;;;;;;7.53;1.90;;;18.20;99.90;;;;;;5135526;27;20229;-54